sensor_id;sensor_type;location;lat;lon;timestamp;P1;durP1;ratioP1;P2;durP2;ratioP2
33104;SDS011;19476;51.448;6.674;2022-11-22T00:00:38;2.28;;;1.20;;
33104;SDS011;19476;51.448;6.674;2022-11-22T00:03:04;6.07;;;1.35;;
33104;SDS011;19476;51.448;6.674;2022-11-22T00:05:30;3.92;;;0.82;;
33104;SDS011;19476;51.448;6.674;2022-11-22T00:07:56;2.63;;;0.85;;
33104;SDS011;19476;51.448;6.674;2022-11-22T00:10:22;3.03;;;1.13;;
33104;SDS011;19476;51.448;6.674;2022-11-22T00:12:48;4.43;;;1.15;;
33104;SDS011;19476;51.448;6.674;2022-11-22T00:15:15;2.58;;;0.80;;
33104;SDS011;19476;51.448;6.674;2022-11-22T00:17:41;6.13;;;1.27;;
33104;SDS011;19476;51.448;6.674;2022-11-22T00:20:07;4.65;;;0.98;;
33104;SDS011;19476;51.448;6.674;2022-11-22T00:22:34;3.47;;;1.00;;
33104;SDS011;19476;51.448;6.674;2022-11-22T00:25:00;2.85;;;1.02;;
33104;SDS011;19476;51.448;6.674;2022-11-22T00:27:26;4.68;;;1.60;;
33104;SDS011;19476;51.448;6.674;2022-11-22T00:29:52;2.65;;;0.80;;
33104;SDS011;19476;51.448;6.674;2022-11-22T00:32:18;4.72;;;1.35;;
33104;SDS011;19476;51.448;6.674;2022-11-22T00:34:43;3.25;;;1.10;;
33104;SDS011;19476;51.448;6.674;2022-11-22T00:37:09;3.30;;;1.15;;
33104;SDS011;19476;51.448;6.674;2022-11-22T00:39:35;4.40;;;1.52;;
33104;SDS011;19476;51.448;6.674;2022-11-22T00:42:01;4.53;;;1.30;;
33104;SDS011;19476;51.448;6.674;2022-11-22T00:44:27;4.10;;;1.55;;
33104;SDS011;19476;51.448;6.674;2022-11-22T00:46:52;4.53;;;1.55;;
33104;SDS011;19476;51.448;6.674;2022-11-22T00:49:18;3.65;;;1.42;;
33104;SDS011;19476;51.448;6.674;2022-11-22T00:51:44;3.83;;;1.00;;
33104;SDS011;19476;51.448;6.674;2022-11-22T00:54:10;3.80;;;1.20;;
33104;SDS011;19476;51.448;6.674;2022-11-22T00:56:36;3.60;;;0.80;;
33104;SDS011;19476;51.448;6.674;2022-11-22T00:59:01;3.30;;;1.70;;
33104;SDS011;19476;51.448;6.674;2022-11-22T01:01:27;3.22;;;1.10;;
33104;SDS011;19476;51.448;6.674;2022-11-22T01:03:53;2.95;;;0.90;;
33104;SDS011;19476;51.448;6.674;2022-11-22T01:06:19;5.28;;;1.10;;
33104;SDS011;19476;51.448;6.674;2022-11-22T01:08:45;2.95;;;1.00;;
33104;SDS011;19476;51.448;6.674;2022-11-22T01:11:11;1.70;;;0.80;;
33104;SDS011;19476;51.448;6.674;2022-11-22T01:13:37;2.67;;;0.88;;
33104;SDS011;19476;51.448;6.674;2022-11-22T01:16:04;3.90;;;0.95;;
33104;SDS011;19476;51.448;6.674;2022-11-22T01:18:31;3.45;;;1.10;;
33104;SDS011;19476;51.448;6.674;2022-11-22T01:20:57;5.65;;;1.35;;
33104;SDS011;19476;51.448;6.674;2022-11-22T01:23:23;4.47;;;1.10;;
33104;SDS011;19476;51.448;6.674;2022-11-22T01:25:49;3.17;;;1.30;;
33104;SDS011;19476;51.448;6.674;2022-11-22T01:28:15;5.90;;;1.23;;
33104;SDS011;19476;51.448;6.674;2022-11-22T01:30:42;3.63;;;1.20;;
33104;SDS011;19476;51.448;6.674;2022-11-22T01:33:07;5.30;;;1.20;;
33104;SDS011;19476;51.448;6.674;2022-11-22T01:35:34;4.18;;;1.38;;
33104;SDS011;19476;51.448;6.674;2022-11-22T01:38:01;2.30;;;0.88;;
33104;SDS011;19476;51.448;6.674;2022-11-22T01:40:27;3.83;;;1.20;;
33104;SDS011;19476;51.448;6.674;2022-11-22T01:42:53;3.50;;;0.82;;
33104;SDS011;19476;51.448;6.674;2022-11-22T01:50:23;3.05;;;1.15;;
33104;SDS011;19476;51.448;6.674;2022-11-22T01:52:50;3.03;;;0.98;;
33104;SDS011;19476;51.448;6.674;2022-11-22T01:55:16;1.98;;;1.10;;
33104;SDS011;19476;51.448;6.674;2022-11-22T01:57:42;3.05;;;1.35;;
33104;SDS011;19476;51.448;6.674;2022-11-22T02:00:11;3.90;;;1.38;;
33104;SDS011;19476;51.448;6.674;2022-11-22T02:02:38;3.55;;;1.23;;
33104;SDS011;19476;51.448;6.674;2022-11-22T02:05:07;3.03;;;1.02;;
33104;SDS011;19476;51.448;6.674;2022-11-22T02:07:54;3.45;;;0.95;;
33104;SDS011;19476;51.448;6.674;2022-11-22T02:10:46;3.50;;;0.73;;
33104;SDS011;19476;51.448;6.674;2022-11-22T02:13:14;5.20;;;1.20;;
33104;SDS011;19476;51.448;6.674;2022-11-22T02:15:41;2.38;;;1.10;;
33104;SDS011;19476;51.448;6.674;2022-11-22T02:18:07;3.45;;;0.90;;
33104;SDS011;19476;51.448;6.674;2022-11-22T02:20:33;2.97;;;1.02;;
33104;SDS011;19476;51.448;6.674;2022-11-22T02:28:09;3.90;;;0.90;;
33104;SDS011;19476;51.448;6.674;2022-11-22T02:30:38;3.03;;;1.02;;
33104;SDS011;19476;51.448;6.674;2022-11-22T02:33:05;1.77;;;0.90;;
33104;SDS011;19476;51.448;6.674;2022-11-22T02:35:31;1.75;;;0.75;;
33104;SDS011;19476;51.448;6.674;2022-11-22T02:40:26;2.65;;;1.02;;
33104;SDS011;19476;51.448;6.674;2022-11-22T02:42:57;2.38;;;0.90;;
33104;SDS011;19476;51.448;6.674;2022-11-22T02:45:54;5.63;;;1.55;;
33104;SDS011;19476;51.448;6.674;2022-11-22T02:48:20;4.00;;;0.98;;
33104;SDS011;19476;51.448;6.674;2022-11-22T02:50:46;3.78;;;1.05;;
33104;SDS011;19476;51.448;6.674;2022-11-22T02:53:11;3.28;;;0.95;;
33104;SDS011;19476;51.448;6.674;2022-11-22T02:55:38;3.47;;;1.33;;
33104;SDS011;19476;51.448;6.674;2022-11-22T02:58:04;1.92;;;0.80;;
33104;SDS011;19476;51.448;6.674;2022-11-22T03:00:34;4.43;;;1.35;;
33104;SDS011;19476;51.448;6.674;2022-11-22T03:03:01;3.53;;;1.05;;
33104;SDS011;19476;51.448;6.674;2022-11-22T03:05:27;3.58;;;1.10;;
33104;SDS011;19476;51.448;6.674;2022-11-22T03:07:53;4.80;;;1.65;;
33104;SDS011;19476;51.448;6.674;2022-11-22T03:10:18;5.28;;;1.23;;
33104;SDS011;19476;51.448;6.674;2022-11-22T03:12:44;4.45;;;1.10;;
33104;SDS011;19476;51.448;6.674;2022-11-22T03:15:10;3.55;;;1.20;;
33104;SDS011;19476;51.448;6.674;2022-11-22T03:17:36;4.47;;;1.25;;
33104;SDS011;19476;51.448;6.674;2022-11-22T03:20:02;3.42;;;1.30;;
33104;SDS011;19476;51.448;6.674;2022-11-22T03:22:28;1.67;;;0.60;;
33104;SDS011;19476;51.448;6.674;2022-11-22T03:24:54;3.65;;;1.13;;
33104;SDS011;19476;51.448;6.674;2022-11-22T03:27:20;4.85;;;1.02;;
33104;SDS011;19476;51.448;6.674;2022-11-22T03:29:46;3.25;;;0.93;;
33104;SDS011;19476;51.448;6.674;2022-11-22T03:32:12;2.35;;;0.75;;
33104;SDS011;19476;51.448;6.674;2022-11-22T03:34:37;3.53;;;1.30;;
33104;SDS011;19476;51.448;6.674;2022-11-22T03:37:03;5.05;;;1.08;;
33104;SDS011;19476;51.448;6.674;2022-11-22T03:39:29;5.20;;;1.35;;
33104;SDS011;19476;51.448;6.674;2022-11-22T03:41:55;4.63;;;1.40;;
33104;SDS011;19476;51.448;6.674;2022-11-22T03:44:21;5.95;;;1.30;;
33104;SDS011;19476;51.448;6.674;2022-11-22T03:46:47;3.17;;;0.88;;
33104;SDS011;19476;51.448;6.674;2022-11-22T03:49:13;3.38;;;0.98;;
33104;SDS011;19476;51.448;6.674;2022-11-22T03:51:39;6.18;;;1.40;;
33104;SDS011;19476;51.448;6.674;2022-11-22T03:54:05;3.85;;;0.93;;
33104;SDS011;19476;51.448;6.674;2022-11-22T03:56:30;4.45;;;1.00;;
33104;SDS011;19476;51.448;6.674;2022-11-22T03:58:56;9.75;;;1.75;;
33104;SDS011;19476;51.448;6.674;2022-11-22T04:01:22;4.10;;;1.05;;
33104;SDS011;19476;51.448;6.674;2022-11-22T04:03:48;5.80;;;1.38;;
33104;SDS011;19476;51.448;6.674;2022-11-22T04:06:14;5.47;;;1.45;;
33104;SDS011;19476;51.448;6.674;2022-11-22T04:08:39;3.00;;;1.00;;
33104;SDS011;19476;51.448;6.674;2022-11-22T04:11:05;3.90;;;1.08;;
33104;SDS011;19476;51.448;6.674;2022-11-22T04:13:31;5.15;;;1.27;;
33104;SDS011;19476;51.448;6.674;2022-11-22T04:16:15;5.18;;;1.17;;
33104;SDS011;19476;51.448;6.674;2022-11-22T04:18:41;3.53;;;1.15;;
33104;SDS011;19476;51.448;6.674;2022-11-22T04:21:07;6.45;;;1.80;;
33104;SDS011;19476;51.448;6.674;2022-11-22T04:23:51;9.18;;;1.17;;
33104;SDS011;19476;51.448;6.674;2022-11-22T04:26:35;4.32;;;0.90;;
33104;SDS011;19476;51.448;6.674;2022-11-22T04:29:02;4.70;;;1.00;;
33104;SDS011;19476;51.448;6.674;2022-11-22T04:31:27;3.85;;;0.82;;
33104;SDS011;19476;51.448;6.674;2022-11-22T04:34:12;4.82;;;0.95;;
33104;SDS011;19476;51.448;6.674;2022-11-22T04:36:38;5.63;;;1.02;;
33104;SDS011;19476;51.448;6.674;2022-11-22T04:39:04;4.13;;;1.27;;
33104;SDS011;19476;51.448;6.674;2022-11-22T04:41:30;4.03;;;1.20;;
33104;SDS011;19476;51.448;6.674;2022-11-22T04:43:56;5.45;;;0.95;;
33104;SDS011;19476;51.448;6.674;2022-11-22T04:46:40;4.15;;;1.10;;
33104;SDS011;19476;51.448;6.674;2022-11-22T04:49:06;3.30;;;0.93;;
33104;SDS011;19476;51.448;6.674;2022-11-22T04:51:32;7.05;;;1.55;;
33104;SDS011;19476;51.448;6.674;2022-11-22T04:54:16;3.20;;;0.93;;
33104;SDS011;19476;51.448;6.674;2022-11-22T04:56:42;4.90;;;0.90;;
33104;SDS011;19476;51.448;6.674;2022-11-22T04:59:07;3.13;;;0.85;;
33104;SDS011;19476;51.448;6.674;2022-11-22T05:01:33;6.68;;;1.63;;
33104;SDS011;19476;51.448;6.674;2022-11-22T05:03:59;6.03;;;1.20;;
33104;SDS011;19476;51.448;6.674;2022-11-22T05:06:24;3.88;;;0.98;;
33104;SDS011;19476;51.448;6.674;2022-11-22T05:08:50;7.82;;;1.75;;
33104;SDS011;19476;51.448;6.674;2022-11-22T05:11:16;7.45;;;1.45;;
33104;SDS011;19476;51.448;6.674;2022-11-22T05:13:42;4.15;;;1.10;;
33104;SDS011;19476;51.448;6.674;2022-11-22T05:16:09;4.03;;;1.13;;
33104;SDS011;19476;51.448;6.674;2022-11-22T05:18:36;5.82;;;1.05;;
33104;SDS011;19476;51.448;6.674;2022-11-22T05:21:09;4.80;;;1.30;;
33104;SDS011;19476;51.448;6.674;2022-11-22T05:23:37;5.60;;;1.27;;
33104;SDS011;19476;51.448;6.674;2022-11-22T05:26:18;4.65;;;1.08;;
33104;SDS011;19476;51.448;6.674;2022-11-22T05:28:52;5.97;;;0.95;;
33104;SDS011;19476;51.448;6.674;2022-11-22T05:31:19;4.25;;;0.80;;
33104;SDS011;19476;51.448;6.674;2022-11-22T05:33:52;7.72;;;1.77;;
33104;SDS011;19476;51.448;6.674;2022-11-22T05:36:20;4.85;;;0.80;;
33104;SDS011;19476;51.448;6.674;2022-11-22T05:38:46;5.25;;;1.23;;
33104;SDS011;19476;51.448;6.674;2022-11-22T05:41:13;5.57;;;1.38;;
33104;SDS011;19476;51.448;6.674;2022-11-22T05:43:39;5.90;;;1.15;;
33104;SDS011;19476;51.448;6.674;2022-11-22T05:46:06;5.38;;;1.38;;
33104;SDS011;19476;51.448;6.674;2022-11-22T05:48:34;4.15;;;1.10;;
33104;SDS011;19476;51.448;6.674;2022-11-22T05:51:07;3.75;;;1.35;;
33104;SDS011;19476;51.448;6.674;2022-11-22T05:53:35;5.72;;;1.40;;
33104;SDS011;19476;51.448;6.674;2022-11-22T05:56:05;3.72;;;0.90;;
33104;SDS011;19476;51.448;6.674;2022-11-22T05:58:32;4.45;;;1.20;;
33104;SDS011;19476;51.448;6.674;2022-11-22T06:01:17;3.75;;;1.27;;
33104;SDS011;19476;51.448;6.674;2022-11-22T06:03:44;4.05;;;1.05;;
33104;SDS011;19476;51.448;6.674;2022-11-22T06:06:10;4.80;;;1.65;;
33104;SDS011;19476;51.448;6.674;2022-11-22T06:08:37;7.72;;;1.35;;
33104;SDS011;19476;51.448;6.674;2022-11-22T06:11:11;5.53;;;1.20;;
33104;SDS011;19476;51.448;6.674;2022-11-22T06:13:42;6.03;;;1.40;;
33104;SDS011;19476;51.448;6.674;2022-11-22T06:16:09;4.43;;;1.40;;
33104;SDS011;19476;51.448;6.674;2022-11-22T06:18:35;4.35;;;1.33;;
33104;SDS011;19476;51.448;6.674;2022-11-22T06:21:02;11.15;;;1.60;;
33104;SDS011;19476;51.448;6.674;2022-11-22T06:23:30;4.72;;;1.27;;
33104;SDS011;19476;51.448;6.674;2022-11-22T06:26:00;8.35;;;1.60;;
33104;SDS011;19476;51.448;6.674;2022-11-22T06:28:30;7.78;;;1.77;;
33104;SDS011;19476;51.448;6.674;2022-11-22T06:31:01;3.63;;;1.00;;
33104;SDS011;19476;51.448;6.674;2022-11-22T06:33:27;3.90;;;1.10;;
33104;SDS011;19476;51.448;6.674;2022-11-22T06:35:52;8.93;;;1.50;;
33104;SDS011;19476;51.448;6.674;2022-11-22T06:38:18;5.43;;;1.17;;
33104;SDS011;19476;51.448;6.674;2022-11-22T06:40:44;6.25;;;1.50;;
33104;SDS011;19476;51.448;6.674;2022-11-22T06:43:09;5.78;;;1.50;;
33104;SDS011;19476;51.448;6.674;2022-11-22T06:45:35;6.35;;;1.48;;
33104;SDS011;19476;51.448;6.674;2022-11-22T06:48:01;8.25;;;1.70;;
33104;SDS011;19476;51.448;6.674;2022-11-22T06:50:27;5.95;;;1.42;;
33104;SDS011;19476;51.448;6.674;2022-11-22T06:52:52;6.00;;;1.20;;
33104;SDS011;19476;51.448;6.674;2022-11-22T06:55:18;9.32;;;1.30;;
33104;SDS011;19476;51.448;6.674;2022-11-22T06:57:48;5.47;;;1.45;;
33104;SDS011;19476;51.448;6.674;2022-11-22T07:00:15;6.38;;;1.25;;
33104;SDS011;19476;51.448;6.674;2022-11-22T07:02:41;4.50;;;1.17;;
33104;SDS011;19476;51.448;6.674;2022-11-22T07:05:07;5.03;;;1.05;;
33104;SDS011;19476;51.448;6.674;2022-11-22T07:07:33;4.72;;;1.40;;
33104;SDS011;19476;51.448;6.674;2022-11-22T07:09:58;5.18;;;1.45;;
33104;SDS011;19476;51.448;6.674;2022-11-22T07:12:24;7.18;;;1.38;;
33104;SDS011;19476;51.448;6.674;2022-11-22T07:14:50;6.45;;;1.60;;
33104;SDS011;19476;51.448;6.674;2022-11-22T07:17:16;8.90;;;1.95;;
33104;SDS011;19476;51.448;6.674;2022-11-22T07:19:42;4.60;;;1.45;;
33104;SDS011;19476;51.448;6.674;2022-11-22T07:22:08;6.25;;;1.98;;
33104;SDS011;19476;51.448;6.674;2022-11-22T07:24:33;3.92;;;1.52;;
33104;SDS011;19476;51.448;6.674;2022-11-22T07:26:59;9.27;;;2.33;;
33104;SDS011;19476;51.448;6.674;2022-11-22T07:29:25;6.63;;;2.15;;
33104;SDS011;19476;51.448;6.674;2022-11-22T07:31:50;7.07;;;2.03;;
33104;SDS011;19476;51.448;6.674;2022-11-22T07:34:16;6.78;;;1.75;;
33104;SDS011;19476;51.448;6.674;2022-11-22T07:36:42;6.30;;;1.90;;
33104;SDS011;19476;51.448;6.674;2022-11-22T07:39:08;6.70;;;1.48;;
33104;SDS011;19476;51.448;6.674;2022-11-22T07:41:34;5.97;;;1.38;;
33104;SDS011;19476;51.448;6.674;2022-11-22T07:44:00;5.10;;;1.67;;
33104;SDS011;19476;51.448;6.674;2022-11-22T07:46:27;7.30;;;1.83;;
33104;SDS011;19476;51.448;6.674;2022-11-22T07:48:55;6.00;;;1.20;;
33104;SDS011;19476;51.448;6.674;2022-11-22T07:51:22;6.43;;;1.80;;
33104;SDS011;19476;51.448;6.674;2022-11-22T07:53:48;5.97;;;1.50;;
33104;SDS011;19476;51.448;6.674;2022-11-22T07:56:14;6.45;;;1.63;;
33104;SDS011;19476;51.448;6.674;2022-11-22T07:58:40;8.68;;;1.90;;
33104;SDS011;19476;51.448;6.674;2022-11-22T08:01:09;5.28;;;1.30;;
33104;SDS011;19476;51.448;6.674;2022-11-22T08:03:37;4.35;;;1.45;;
33104;SDS011;19476;51.448;6.674;2022-11-22T08:06:04;7.50;;;2.08;;
33104;SDS011;19476;51.448;6.674;2022-11-22T08:08:32;6.47;;;1.90;;
33104;SDS011;19476;51.448;6.674;2022-11-22T08:10:58;6.25;;;1.75;;
33104;SDS011;19476;51.448;6.674;2022-11-22T08:13:25;6.70;;;1.58;;
33104;SDS011;19476;51.448;6.674;2022-11-22T08:15:51;8.68;;;2.00;;
33104;SDS011;19476;51.448;6.674;2022-11-22T08:18:16;6.88;;;2.08;;
33104;SDS011;19476;51.448;6.674;2022-11-22T08:20:42;7.03;;;2.05;;
33104;SDS011;19476;51.448;6.674;2022-11-22T08:23:08;7.75;;;2.30;;
33104;SDS011;19476;51.448;6.674;2022-11-22T08:25:34;7.28;;;2.58;;
33104;SDS011;19476;51.448;6.674;2022-11-22T08:28:00;10.73;;;2.30;;
33104;SDS011;19476;51.448;6.674;2022-11-22T08:30:26;7.03;;;2.10;;
33104;SDS011;19476;51.448;6.674;2022-11-22T08:32:55;9.65;;;1.83;;
33104;SDS011;19476;51.448;6.674;2022-11-22T08:35:21;8.18;;;1.92;;
33104;SDS011;19476;51.448;6.674;2022-11-22T08:37:46;4.32;;;1.83;;
33104;SDS011;19476;51.448;6.674;2022-11-22T08:40:12;7.15;;;1.63;;
33104;SDS011;19476;51.448;6.674;2022-11-22T08:42:38;6.07;;;1.40;;
33104;SDS011;19476;51.448;6.674;2022-11-22T08:45:04;4.82;;;1.33;;
33104;SDS011;19476;51.448;6.674;2022-11-22T08:47:30;8.15;;;2.33;;
33104;SDS011;19476;51.448;6.674;2022-11-22T08:49:56;5.50;;;1.20;;
33104;SDS011;19476;51.448;6.674;2022-11-22T08:52:22;6.00;;;1.50;;
33104;SDS011;19476;51.448;6.674;2022-11-22T08:54:48;6.07;;;1.30;;
33104;SDS011;19476;51.448;6.674;2022-11-22T08:57:14;3.08;;;0.95;;
33104;SDS011;19476;51.448;6.674;2022-11-22T08:59:40;3.67;;;0.95;;
33104;SDS011;19476;51.448;6.674;2022-11-22T09:02:06;6.32;;;1.63;;
33104;SDS011;19476;51.448;6.674;2022-11-22T09:04:32;6.40;;;1.70;;
33104;SDS011;19476;51.448;6.674;2022-11-22T09:06:58;3.65;;;1.30;;
33104;SDS011;19476;51.448;6.674;2022-11-22T09:09:25;6.47;;;1.40;;
33104;SDS011;19476;51.448;6.674;2022-11-22T09:11:50;5.85;;;1.58;;
33104;SDS011;19476;51.448;6.674;2022-11-22T09:14:16;5.68;;;1.98;;
33104;SDS011;19476;51.448;6.674;2022-11-22T09:16:42;5.78;;;1.67;;
33104;SDS011;19476;51.448;6.674;2022-11-22T09:19:08;5.55;;;1.27;;
33104;SDS011;19476;51.448;6.674;2022-11-22T09:21:34;5.28;;;1.33;;
33104;SDS011;19476;51.448;6.674;2022-11-22T09:24:00;4.50;;;1.20;;
33104;SDS011;19476;51.448;6.674;2022-11-22T09:26:26;4.18;;;1.33;;
33104;SDS011;19476;51.448;6.674;2022-11-22T09:28:51;9.27;;;1.27;;
33104;SDS011;19476;51.448;6.674;2022-11-22T09:31:18;4.70;;;1.15;;
33104;SDS011;19476;51.448;6.674;2022-11-22T09:33:46;6.40;;;1.52;;
33104;SDS011;19476;51.448;6.674;2022-11-22T09:36:20;3.65;;;1.10;;
33104;SDS011;19476;51.448;6.674;2022-11-22T09:38:48;6.53;;;1.42;;
33104;SDS011;19476;51.448;6.674;2022-11-22T09:51:57;3.72;;;0.77;;
33104;SDS011;19476;51.448;6.674;2022-11-22T09:54:53;5.13;;;0.95;;
33104;SDS011;19476;51.448;6.674;2022-11-22T09:57:26;5.85;;;1.00;;
33104;SDS011;19476;51.448;6.674;2022-11-22T10:00:22;3.80;;;0.90;;
33104;SDS011;19476;51.448;6.674;2022-11-22T10:10:57;5.35;;;1.08;;
33104;SDS011;19476;51.448;6.674;2022-11-22T10:13:36;3.72;;;0.95;;
33104;SDS011;19476;51.448;6.674;2022-11-22T10:16:15;4.40;;;0.85;;
33104;SDS011;19476;51.448;6.674;2022-11-22T10:21:57;5.85;;;1.42;;
33104;SDS011;19476;51.448;6.674;2022-11-22T10:24:22;6.53;;;1.33;;
33104;SDS011;19476;51.448;6.674;2022-11-22T10:26:48;3.33;;;0.82;;
33104;SDS011;19476;51.448;6.674;2022-11-22T10:29:28;4.07;;;0.90;;
33104;SDS011;19476;51.448;6.674;2022-11-22T10:32:18;3.58;;;0.70;;
33104;SDS011;19476;51.448;6.674;2022-11-22T10:40:36;3.00;;;0.80;;
33104;SDS011;19476;51.448;6.674;2022-11-22T10:46:34;3.40;;;0.80;;
33104;SDS011;19476;51.448;6.674;2022-11-22T10:51:58;12.68;;;1.42;;
33104;SDS011;19476;51.448;6.674;2022-11-22T10:54:53;1.73;;;0.68;;
33104;SDS011;19476;51.448;6.674;2022-11-22T10:57:50;2.42;;;0.73;;
33104;SDS011;19476;51.448;6.674;2022-11-22T11:00:50;3.10;;;0.50;;
33104;SDS011;19476;51.448;6.674;2022-11-22T11:03:45;1.98;;;0.80;;
33104;SDS011;19476;51.448;6.674;2022-11-22T11:06:57;3.38;;;0.73;;
33104;SDS011;19476;51.448;6.674;2022-11-22T11:11:58;5.90;;;1.23;;
33104;SDS011;19476;51.448;6.674;2022-11-22T11:14:29;2.03;;;0.40;;
33104;SDS011;19476;51.448;6.674;2022-11-22T11:17:05;2.58;;;0.85;;
33104;SDS011;19476;51.448;6.674;2022-11-22T11:19:33;2.28;;;0.60;;
33104;SDS011;19476;51.448;6.674;2022-11-22T11:24:31;4.07;;;0.77;;
33104;SDS011;19476;51.448;6.674;2022-11-22T11:27:04;1.92;;;0.65;;
33104;SDS011;19476;51.448;6.674;2022-11-22T11:32:15;2.53;;;0.70;;
33104;SDS011;19476;51.448;6.674;2022-11-22T11:34:55;3.83;;;1.05;;
33104;SDS011;19476;51.448;6.674;2022-11-22T11:37:33;2.35;;;0.80;;
33104;SDS011;19476;51.448;6.674;2022-11-22T11:40:02;3.50;;;0.55;;
33104;SDS011;19476;51.448;6.674;2022-11-22T11:42:30;2.65;;;0.65;;
33104;SDS011;19476;51.448;6.674;2022-11-22T11:47:53;2.75;;;0.60;;
33104;SDS011;19476;51.448;6.674;2022-11-22T11:50:20;2.55;;;0.60;;
33104;SDS011;19476;51.448;6.674;2022-11-22T11:52:52;3.38;;;0.90;;
33104;SDS011;19476;51.448;6.674;2022-11-22T11:55:37;2.70;;;0.52;;
33104;SDS011;19476;51.448;6.674;2022-11-22T11:58:09;3.63;;;0.60;;
33104;SDS011;19476;51.448;6.674;2022-11-22T12:00:48;2.60;;;0.50;;
33104;SDS011;19476;51.448;6.674;2022-11-22T12:03:16;1.25;;;0.40;;
33104;SDS011;19476;51.448;6.674;2022-11-22T12:05:43;2.08;;;0.60;;
33104;SDS011;19476;51.448;6.674;2022-11-22T12:08:28;1.25;;;0.50;;
33104;SDS011;19476;51.448;6.674;2022-11-22T12:13:34;1.48;;;0.60;;
33104;SDS011;19476;51.448;6.674;2022-11-22T12:27:33;2.17;;;0.50;;
33104;SDS011;19476;51.448;6.674;2022-11-22T12:29:59;2.08;;;0.30;;
33104;SDS011;19476;51.448;6.674;2022-11-22T12:32:26;1.52;;;0.40;;
33104;SDS011;19476;51.448;6.674;2022-11-22T12:35:10;1.45;;;0.47;;
33104;SDS011;19476;51.448;6.674;2022-11-22T12:37:47;1.90;;;0.40;;
33104;SDS011;19476;51.448;6.674;2022-11-22T12:40:20;1.60;;;0.30;;
33104;SDS011;19476;51.448;6.674;2022-11-22T12:45:33;1.50;;;0.30;;
33104;SDS011;19476;51.448;6.674;2022-11-22T12:48:05;0.52;;;0.32;;
33104;SDS011;19476;51.448;6.674;2022-11-22T12:50:54;1.13;;;0.20;;
33104;SDS011;19476;51.448;6.674;2022-11-22T12:53:34;1.25;;;0.30;;
33104;SDS011;19476;51.448;6.674;2022-11-22T12:58:39;1.15;;;0.50;;
33104;SDS011;19476;51.448;6.674;2022-11-22T13:09:16;0.73;;;0.40;;
33104;SDS011;19476;51.448;6.674;2022-11-22T13:14:27;1.98;;;0.60;;
33104;SDS011;19476;51.448;6.674;2022-11-22T13:17:07;2.50;;;0.50;;
33104;SDS011;19476;51.448;6.674;2022-11-22T13:25:17;2.00;;;0.52;;
33104;SDS011;19476;51.448;6.674;2022-11-22T13:28:00;4.15;;;0.95;;
33104;SDS011;19476;51.448;6.674;2022-11-22T13:30:33;8.52;;;2.92;;
33104;SDS011;19476;51.448;6.674;2022-11-22T13:33:03;4.63;;;2.07;;
33104;SDS011;19476;51.448;6.674;2022-11-22T13:35:31;3.80;;;1.60;;
33104;SDS011;19476;51.448;6.674;2022-11-22T13:38:11;2.97;;;1.10;;
33104;SDS011;19476;51.448;6.674;2022-11-22T13:40:44;3.25;;;1.13;;
33104;SDS011;19476;51.448;6.674;2022-11-22T13:51:10;5.40;;;1.95;;
33104;SDS011;19476;51.448;6.674;2022-11-22T13:53:46;2.92;;;1.30;;
33104;SDS011;19476;51.448;6.674;2022-11-22T14:01:28;2.80;;;1.00;;
33104;SDS011;19476;51.448;6.674;2022-11-22T14:12:28;7.47;;;2.58;;
33104;SDS011;19476;51.448;6.674;2022-11-22T14:15:30;8.57;;;3.83;;
33104;SDS011;19476;51.448;6.674;2022-11-22T14:23:42;2.22;;;0.90;;
33104;SDS011;19476;51.448;6.674;2022-11-22T14:26:53;9.68;;;5.05;;
33104;SDS011;19476;51.448;6.674;2022-11-22T14:29:46;7.93;;;3.85;;
33104;SDS011;19476;51.448;6.674;2022-11-22T14:32:40;4.95;;;2.28;;
33104;SDS011;19476;51.448;6.674;2022-11-22T14:35:34;3.83;;;1.60;;
33104;SDS011;19476;51.448;6.674;2022-11-22T14:38:02;3.13;;;1.25;;
33104;SDS011;19476;51.448;6.674;2022-11-22T14:40:36;2.90;;;1.30;;
33104;SDS011;19476;51.448;6.674;2022-11-22T14:43:04;3.83;;;1.23;;
33104;SDS011;19476;51.448;6.674;2022-11-22T14:45:51;3.30;;;1.42;;
33104;SDS011;19476;51.448;6.674;2022-11-22T14:48:20;5.43;;;2.50;;
33104;SDS011;19476;51.448;6.674;2022-11-22T14:56:15;2.13;;;0.88;;
33104;SDS011;19476;51.448;6.674;2022-11-22T15:17:26;2.75;;;1.10;;
33104;SDS011;19476;51.448;6.674;2022-11-22T15:19:54;1.25;;;0.52;;
33104;SDS011;19476;51.448;6.674;2022-11-22T15:22:24;0.93;;;0.40;;
33104;SDS011;19476;51.448;6.674;2022-11-22T15:24:54;0.70;;;0.40;;
33104;SDS011;19476;51.448;6.674;2022-11-22T15:32:41;2.13;;;0.75;;
33104;SDS011;19476;51.448;6.674;2022-11-22T15:35:11;3.10;;;0.50;;
33104;SDS011;19476;51.448;6.674;2022-11-22T15:37:47;0.47;;;0.20;;
33104;SDS011;19476;51.448;6.674;2022-11-22T15:40:30;1.80;;;0.70;;
33104;SDS011;19476;51.448;6.674;2022-11-22T15:43:18;6.10;;;1.70;;
33104;SDS011;19476;51.448;6.674;2022-11-22T15:45:47;2.63;;;1.30;;
33104;SDS011;19476;51.448;6.674;2022-11-22T15:48:18;1.00;;;0.50;;
33104;SDS011;19476;51.448;6.674;2022-11-22T15:53:37;0.95;;;0.40;;
33104;SDS011;19476;51.448;6.674;2022-11-22T15:56:17;0.70;;;0.30;;
33104;SDS011;19476;51.448;6.674;2022-11-22T15:58:55;0.95;;;0.30;;
33104;SDS011;19476;51.448;6.674;2022-11-22T16:01:21;0.65;;;0.20;;
33104;SDS011;19476;51.448;6.674;2022-11-22T16:03:51;0.43;;;0.25;;
33104;SDS011;19476;51.448;6.674;2022-11-22T16:06:23;0.88;;;0.52;;
33104;SDS011;19476;51.448;6.674;2022-11-22T16:08:58;1.17;;;0.30;;
33104;SDS011;19476;51.448;6.674;2022-11-22T16:11:26;0.98;;;0.40;;
33104;SDS011;19476;51.448;6.674;2022-11-22T16:14:01;1.48;;;0.55;;
33104;SDS011;19476;51.448;6.674;2022-11-22T16:16:27;1.05;;;0.60;;
33104;SDS011;19476;51.448;6.674;2022-11-22T16:19:20;2.08;;;0.90;;
33104;SDS011;19476;51.448;6.674;2022-11-22T16:21:55;1.52;;;0.60;;
33104;SDS011;19476;51.448;6.674;2022-11-22T16:24:25;1.23;;;0.65;;
33104;SDS011;19476;51.448;6.674;2022-11-22T16:26:56;1.35;;;0.40;;
33104;SDS011;19476;51.448;6.674;2022-11-22T16:29:36;2.15;;;0.40;;
33104;SDS011;19476;51.448;6.674;2022-11-22T16:34:34;1.92;;;0.85;;
33104;SDS011;19476;51.448;6.674;2022-11-22T16:37:00;1.70;;;0.70;;
33104;SDS011;19476;51.448;6.674;2022-11-22T16:39:26;1.55;;;0.65;;
33104;SDS011;19476;51.448;6.674;2022-11-22T16:41:52;1.10;;;0.50;;
33104;SDS011;19476;51.448;6.674;2022-11-22T16:44:18;1.67;;;0.43;;
33104;SDS011;19476;51.448;6.674;2022-11-22T16:46:45;1.13;;;0.40;;
33104;SDS011;19476;51.448;6.674;2022-11-22T16:49:18;1.15;;;0.60;;
33104;SDS011;19476;51.448;6.674;2022-11-22T16:51:47;2.38;;;0.68;;
33104;SDS011;19476;51.448;6.674;2022-11-22T16:54:16;0.75;;;0.47;;
33104;SDS011;19476;51.448;6.674;2022-11-22T16:56:43;2.25;;;0.70;;
33104;SDS011;19476;51.448;6.674;2022-11-22T16:59:10;1.55;;;0.68;;
33104;SDS011;19476;51.448;6.674;2022-11-22T17:01:40;1.50;;;0.80;;
33104;SDS011;19476;51.448;6.674;2022-11-22T17:04:13;1.35;;;0.68;;
33104;SDS011;19476;51.448;6.674;2022-11-22T17:06:45;9.55;;;4.38;;
33104;SDS011;19476;51.448;6.674;2022-11-22T17:09:11;6.55;;;3.13;;
33104;SDS011;19476;51.448;6.674;2022-11-22T17:11:37;6.38;;;3.20;;
33104;SDS011;19476;51.448;6.674;2022-11-22T17:14:03;7.75;;;4.20;;
33104;SDS011;19476;51.448;6.674;2022-11-22T17:16:29;4.65;;;2.88;;
33104;SDS011;19476;51.448;6.674;2022-11-22T17:18:55;4.13;;;2.67;;
33104;SDS011;19476;51.448;6.674;2022-11-22T17:21:27;12.27;;;8.00;;
33104;SDS011;19476;51.448;6.674;2022-11-22T17:23:57;7.45;;;4.85;;
33104;SDS011;19476;51.448;6.674;2022-11-22T17:26:25;6.47;;;4.82;;
33104;SDS011;19476;51.448;6.674;2022-11-22T17:28:51;3.60;;;2.88;;
33104;SDS011;19476;51.448;6.674;2022-11-22T17:31:17;5.65;;;3.88;;
33104;SDS011;19476;51.448;6.674;2022-11-22T17:33:50;4.10;;;2.47;;
33104;SDS011;19476;51.448;6.674;2022-11-22T17:36:27;2.47;;;1.30;;
33104;SDS011;19476;51.448;6.674;2022-11-22T17:41:24;3.40;;;0.98;;